Time;durP1;ratioP1;P1;durP2;ratioP2;P2;SDS_P1;SDS_P2;PMS_P1;PMS_P2;Temp;Humidity;BMP_temperature;BMP_pressure;BME280_temperature;BME280_humidity;BME280_pressure;Samples;Min_cycle;Max_cycle;Signal;HPM_P1;HPM_P2
2021/05/22 00:01:14;;;;;;;2.15;0.75;;;13.10;74.10;;;;;;5084995;28;27518;-62
2021/05/22 00:04:05;;;;;;;1.98;0.65;;;13.10;74.10;;;;;;5085006;28;27385;-62
2021/05/22 00:06:58;;;;;;;3.20;0.80;;;13.10;74.10;;;;;;5084976;28;27391;-61
2021/05/22 00:09:52;;;;;;;2.72;0.77;;;13.10;73.70;;;;;;5068987;28;27524;-61
2021/05/22 00:12:41;;;;;;;1.05;0.65;;;13.10;74.10;;;;;;5070048;28;27415;-62
2021/05/22 00:15:33;;;;;;;0.57;0.45;;;13.10;74.20;;;;;;5084125;28;27333;-62
2021/05/22 00:18:24;;;;;;;0.43;0.43;;;13.00;73.70;;;;;;5084610;28;27469;-61
2021/05/22 00:21:21;;;;;;;1.73;0.60;;;13.00;73.70;;;;;;5083598;28;27431;-61
2021/05/22 00:24:32;;;;;;;0.50;0.45;;;13.00;73.90;;;;;;5083959;28;27523;-61
2021/05/22 00:28:00;;;;;;;1.05;0.38;;;13.00;73.60;;;;;;5084499;28;27431;-61
2021/05/22 00:31:05;;;;;;;1.13;0.43;;;12.90;70.50;;;;;;5082793;28;27391;-61
2021/05/22 00:33:56;;;;;;;1.08;0.40;;;12.90;72.60;;;;;;5081071;28;27395;-61
2021/05/22 00:37:02;;;;;;;0.93;0.40;;;12.90;72.90;;;;;;5084318;28;27474;-61
2021/05/22 00:39:52;;;;;;;0.40;0.40;;;12.80;70.90;;;;;;5084215;28;27387;-61
2021/05/22 00:42:50;;;;;;;1.92;0.90;;;12.80;72.40;;;;;;5080927;28;27472;-61
2021/05/22 00:45:43;;;;;;;1.67;0.80;;;12.80;73.00;;;;;;5084056;28;27464;-61
2021/05/22 00:48:34;;;;;;;0.95;0.60;;;12.80;73.20;;;;;;5082274;28;27477;-61
2021/05/22 00:51:19;;;;;;;0.80;0.50;;;12.70;73.00;;;;;;5080309;28;27371;-62
2021/05/22 00:54:46;;;;;;;3.63;0.80;;;12.70;73.00;;;;;;5083322;28;27318;-61
2021/05/22 00:57:43;;;;;;;7.30;0.77;;;12.70;73.70;;;;;;5084001;28;27333;-61
2021/05/22 01:00:45;;;;;;;2.28;0.60;;;12.70;72.10;;;;;;5084207;28;27514;-62
2021/05/22 01:04:14;;;;;;;1.95;0.90;;;12.60;70.70;;;;;;5084209;28;27402;-61
2021/05/22 01:07:05;;;;;;;0.47;0.40;;;12.60;71.00;;;;;;5080616;28;27288;-61
2021/05/22 01:10:05;;;;;;;2.15;0.70;;;12.50;71.20;;;;;;5079799;28;27403;-61
2021/05/22 01:12:58;;;;;;;1.02;0.88;;;12.50;72.70;;;;;;5080782;28;27341;-61
2021/05/22 01:15:51;;;;;;;2.72;0.63;;;12.50;73.80;;;;;;5083356;28;27632;-61
2021/05/22 01:18:41;;;;;;;1.00;0.70;;;12.50;72.60;;;;;;5083687;28;27288;-62
2021/05/22 01:21:31;;;;;;;2.05;0.80;;;12.50;73.70;;;;;;5065513;28;27956;-61
2021/05/22 01:24:44;;;;;;;2.13;0.80;;;12.50;71.10;;;;;;5082623;28;27601;-62
2021/05/22 01:27:35;;;;;;;2.72;0.60;;;12.40;71.40;;;;;;5081971;28;27364;-62
2021/05/22 01:30:20;;;;;;;1.33;0.70;;;12.30;71.50;;;;;;5083528;28;27400;-60
2021/05/22 01:33:46;;;;;;;1.98;0.90;;;12.30;72.30;;;;;;5079545;28;27404;-61
2021/05/22 01:37:12;;;;;;;2.63;0.70;;;12.30;72.00;;;;;;5083157;28;27459;-61
2021/05/22 01:40:09;;;;;;;1.90;0.85;;;12.30;73.90;;;;;;5083417;28;27320;-61
2021/05/22 01:43:00;;;;;;;3.33;0.82;;;12.30;74.40;;;;;;5083076;28;27328;-61
2021/05/22 01:45:51;;;;;;;1.08;0.60;;;12.30;74.40;;;;;;5083414;28;27431;-61
2021/05/22 01:48:42;;;;;;;0.90;0.73;;;12.40;76.10;;;;;;5082706;28;27372;-62
2021/05/22 01:51:48;;;;;;;1.80;0.80;;;12.40;75.40;;;;;;5083314;28;27389;-61
2021/05/22 01:54:45;;;;;;;3.72;1.00;;;12.40;75.20;;;;;;5081308;28;27675;-62
2021/05/22 01:57:36;;;;;;;0.70;0.68;;;12.40;75.40;;;;;;5083263;28;27344;-62
2021/05/22 02:01:03;;;;;;;2.25;0.77;;;12.40;75.40;;;;;;5082764;28;27344;-61
2021/05/22 02:04:15;;;;;;;2.85;0.57;;;12.50;73.30;;;;;;5082797;28;27416;-61
2021/05/22 02:07:13;;;;;;;2.67;1.00;;;12.40;71.90;;;;;;5083403;28;27466;-62
2021/05/22 02:10:30;;;;;;;2.72;0.80;;;12.40;71.40;;;;;;5081305;28;27419;-61
2021/05/22 02:13:43;;;;;;;1.30;0.60;;;12.40;72.00;;;;;;5083028;28;27431;-62
2021/05/22 02:16:41;;;;;;;2.05;0.75;;;12.30;72.90;;;;;;5081882;28;27327;-62
2021/05/22 02:19:32;;;;;;;1.80;0.88;;;12.30;74.90;;;;;;5079105;28;27401;-62
2021/05/22 02:22:39;;;;;;;2.35;0.80;;;12.40;75.50;;;;;;5083182;28;27407;-62
2021/05/22 02:25:30;;;;;;;2.45;0.80;;;12.40;75.40;;;;;;5082398;28;27386;-62
2021/05/22 02:28:21;;;;;;;2.97;0.80;;;12.40;75.70;;;;;;5079899;28;27456;-62
2021/05/22 02:31:47;;;;;;;2.50;0.82;;;12.40;75.70;;;;;;5079811;28;27443;-62
2021/05/22 02:34:56;;;;;;;5.00;1.05;;;12.40;75.70;;;;;;5085667;28;27411;-62
2021/05/22 02:38:24;;;;;;;2.88;0.93;;;12.50;76.00;;;;;;5113617;27;27427;-62
2021/05/22 02:41:30;;;;;;;2.03;0.90;;;12.50;75.90;;;;;;5085720;28;26932;-62
2021/05/22 02:44:36;;;;;;;2.20;0.77;;;12.50;75.90;;;;;;5086050;28;27378;-62
2021/05/22 02:47:34;;;;;;;1.23;0.88;;;12.50;75.70;;;;;;5113945;27;27396;-62
2021/05/22 02:50:43;;;;;;;2.28;0.88;;;12.50;75.70;;;;;;5086106;28;27600;-62
2021/05/22 02:53:34;;;;;;;2.28;0.60;;;12.50;75.70;;;;;;5085619;28;27375;-62
2021/05/22 02:56:33;;;;;;;2.50;0.82;;;12.50;76.00;;;;;;5085970;28;27462;-62
2021/05/22 02:59:52;;;;;;;1.08;0.75;;;12.50;76.00;;;;;;5085590;28;27976;-62
2021/05/22 03:02:45;;;;;;;1.83;0.82;;;12.50;75.80;;;;;;5085100;28;27454;-62
2021/05/22 03:06:04;;;;;;;1.38;0.70;;;12.50;75.60;;;;;;5063314;28;27547;-62
2021/05/22 03:08:54;;;;;;;2.95;0.77;;;12.50;75.80;;;;;;5063176;28;27665;-62
2021/05/22 03:11:45;;;;;;;1.27;0.63;;;12.60;75.70;;;;;;5063771;28;27438;-62
2021/05/22 03:14:51;;;;;;;2.72;0.75;;;12.60;75.70;;;;;;5047469;28;27452;-62
2021/05/22 03:17:42;;;;;;;0.93;0.60;;;12.60;75.90;;;;;;5062722;28;27468;-62
2021/05/22 03:20:32;;;;;;;3.33;0.88;;;12.60;75.90;;;;;;5063788;28;27460;-62
2021/05/22 03:23:32;;;;;;;1.10;0.65;;;12.60;76.00;;;;;;5060263;28;27415;-62
2021/05/22 03:27:05;;;;;;;3.45;0.85;;;12.50;76.00;;;;;;5063396;28;27549;-62
2021/05/22 03:30:38;;;;;;;1.13;0.70;;;12.60;76.90;;;;;;5061476;28;27483;-62
2021/05/22 03:34:11;;;;;;;2.47;0.85;;;12.50;76.30;;;;;;5062957;28;27460;-62
2021/05/22 03:37:01;;;;;;;3.92;0.77;;;12.60;76.60;;;;;;5080921;28;27967;-62
2021/05/22 03:39:58;;;;;;;1.52;0.82;;;12.50;76.60;;;;;;5081970;28;27506;-62
2021/05/22 03:42:49;;;;;;;1.05;0.88;;;12.50;76.70;;;;;;5085269;28;27426;-62
2021/05/22 03:45:39;;;;;;;1.40;0.70;;;12.50;76.90;;;;;;5084109;28;27438;-62
2021/05/22 03:48:50;;;;;;;2.58;0.70;;;12.50;76.70;;;;;;5085165;28;27845;-62
2021/05/22 03:51:41;;;;;;;2.20;0.75;;;12.50;76.80;;;;;;5082186;28;27379;-62
2021/05/22 03:54:31;;;;;;;6.13;0.88;;;12.50;77.00;;;;;;5085100;28;27416;-62
2021/05/22 03:57:25;;;;;;;1.55;0.90;;;12.50;77.10;;;;;;5081450;28;27428;-62
2021/05/22 04:00:34;;;;;;;1.80;0.90;;;12.50;76.90;;;;;;5070342;28;27416;-62
2021/05/22 04:03:46;;;;;;;0.73;0.63;;;12.50;76.80;;;;;;5084801;28;27601;-62
2021/05/22 04:07:24;;;;;;;2.15;1.08;;;12.50;77.00;;;;;;5084366;28;27431;-62
2021/05/22 04:10:11;;;;;;;1.50;0.90;;;12.40;77.50;;;;;;5083992;28;27478;-62
2021/05/22 04:13:23;;;;;;;1.90;0.98;;;12.50;77.30;;;;;;5083971;28;27947;-62
2021/05/22 04:16:33;;;;;;;2.03;0.80;;;12.50;77.60;;;;;;5084762;28;27472;-62
2021/05/22 04:20:02;;;;;;;2.65;0.77;;;12.50;78.10;;;;;;5084585;28;27438;-63
2021/05/22 04:23:08;;;;;;;4.95;0.80;;;12.50;77.10;;;;;;5084224;28;27054;-62
2021/05/22 04:26:14;;;;;;;1.60;0.77;;;12.50;76.90;;;;;;5083118;28;27490;-62
2021/05/22 04:29:01;;;;;;;5.85;0.90;;;12.50;76.90;;;;;;5083990;28;27484;-62
2021/05/22 04:32:06;;;;;;;3.75;0.75;;;12.50;77.00;;;;;;5080677;28;27458;-62
2021/05/22 04:35:18;;;;;;;3.80;0.90;;;12.50;77.30;;;;;;5084305;28;27566;-62
2021/05/22 04:38:12;;;;;;;1.02;0.85;;;12.50;77.60;;;;;;5084605;28;28083;-62
2021/05/22 04:41:18;;;;;;;1.92;0.90;;;12.60;77.80;;;;;;5084553;28;27467;-62
2021/05/22 04:44:24;;;;;;;1.63;0.60;;;12.60;78.00;;;;;;5084001;28;27420;-62
2021/05/22 04:47:30;;;;;;;0.95;0.57;;;12.60;78.10;;;;;;5084103;28;27426;-62
2021/05/22 04:50:38;;;;;;;1.02;0.80;;;12.70;78.30;;;;;;5084103;28;27488;-62
2021/05/22 04:53:44;;;;;;;3.53;1.50;;;12.60;78.10;;;;;;5083779;28;27363;-62
2021/05/22 04:56:42;;;;;;;10.00;3.78;;;12.70;78.20;;;;;;5084060;28;27387;-62
2021/05/22 05:00:08;;;;;;;4.20;1.95;;;12.70;77.90;;;;;;5084058;28;27478;-62
2021/05/22 05:03:14;;;;;;;2.55;1.52;;;12.70;78.30;;;;;;5083631;28;27410;-62
2021/05/22 05:06:20;;;;;;;3.63;1.33;;;12.70;78.80;;;;;;5083852;28;27415;-62
2021/05/22 05:09:33;;;;;;;2.67;1.40;;;12.70;78.60;;;;;;5112065;27;27416;-62
2021/05/22 05:12:39;;;;;;;3.45;1.20;;;12.70;77.40;;;;;;5084217;28;27408;-62
2021/05/22 05:15:47;;;;;;;1.35;0.90;;;12.70;77.40;;;;;;5083702;28;27435;-62
2021/05/22 05:18:52;;;;;;;2.88;1.40;;;12.70;77.60;;;;;;5111547;27;27749;-62
2021/05/22 05:21:58;;;;;;;2.00;0.80;;;12.80;77.50;;;;;;5083727;28;26967;-62
2021/05/22 05:24:55;;;;;;;4.40;1.30;;;12.80;77.40;;;;;;5081896;28;27402;-63
2021/05/22 05:28:01;;;;;;;4.07;1.00;;;12.80;77.70;;;;;;5083943;28;27927;-62
2021/05/22 05:31:13;;;;;;;4.28;1.20;;;12.80;77.70;;;;;;5084031;28;27479;-62
2021/05/22 05:34:22;;;;;;;3.05;1.02;;;12.90;77.60;;;;;;5084057;28;27379;-63
2021/05/22 05:37:35;;;;;;;3.55;1.00;;;12.90;76.80;;;;;;5083494;28;27603;-62
2021/05/22 05:40:32;;;;;;;4.43;1.15;;;12.90;76.40;;;;;;5084112;28;27315;-62
2021/05/22 05:43:42;;;;;;;2.42;1.30;;;13.00;76.80;;;;;;5083886;28;27441;-62
2021/05/22 05:46:50;;;;;;;5.07;1.00;;;13.00;77.50;;;;;;5082808;28;27398;-63
2021/05/22 05:49:55;;;;;;;2.03;1.05;;;13.10;77.50;;;;;;5080694;28;27337;-63
2021/05/22 05:53:06;;;;;;;2.88;1.00;;;13.20;77.40;;;;;;5082284;28;27614;-63
2021/05/22 05:56:33;;;;;;;6.78;1.63;;;13.30;77.20;;;;;;5083448;28;27465;-63
2021/05/22 05:59:30;;;;;;;3.65;0.77;;;13.40;77.60;;;;;;5083001;28;27410;-62
2021/05/22 06:02:21;;;;;;;5.00;1.20;;;13.40;78.30;;;;;;5083685;28;27389;-63
2021/05/22 06:05:32;;;;;;;5.32;1.42;;;13.50;78.80;;;;;;5083589;28;27935;-62
2021/05/22 06:08:24;;;;;;;5.88;1.75;;;13.50;78.80;;;;;;5086988;28;27435;-63
2021/05/22 06:11:24;;;;;;;2.03;0.98;;;13.60;78.60;;;;;;5087172;28;27407;-63
2021/05/22 06:14:39;;;;;;;5.50;1.67;;;13.80;78.20;;;;;;5085557;28;27584;-63
2021/05/22 06:17:27;;;;;;;5.85;1.33;;;14.30;76.70;;;;;;5086956;28;27332;-63
2021/05/22 06:20:25;;;;;;;4.80;1.77;;;14.80;74.90;;;;;;5087256;28;27348;-63
2021/05/22 06:23:15;;;;;;;6.93;1.40;;;15.20;74.50;;;;;;5082420;28;27391;-63
2021/05/22 06:26:06;;;;;;;5.57;1.15;;;15.60;73.50;;;;;;5086448;28;27481;-63
2021/05/22 06:28:59;;;;;;;4.75;1.85;;;16.10;71.70;;;;;;5086820;28;27915;-63
2021/05/22 06:31:50;;;;;;;3.58;1.30;;;16.40;71.80;;;;;;5086809;28;27403;-62
2021/05/22 06:34:41;;;;;;;5.25;1.45;;;16.60;71.50;;;;;;5086863;28;27409;-61
2021/05/22 06:37:32;;;;;;;8.13;1.67;;;16.90;69.50;;;;;;5086769;28;27331;-61
2021/05/22 06:40:24;;;;;;;4.90;1.30;;;16.80;69.70;;;;;;5086389;28;27395;-62
2021/05/22 06:43:15;;;;;;;8.30;1.25;;;16.80;69.70;;;;;;5082825;28;27463;-61
2021/05/22 06:46:48;;;;;;;7.78;1.42;;;16.70;69.00;;;;;;5086846;28;27335;-62
2021/05/22 06:49:40;;;;;;;3.65;1.00;;;16.70;70.60;;;;;;5083520;28;27442;-61
2021/05/22 06:52:31;;;;;;;5.13;1.17;;;16.70;69.60;;;;;;5086752;28;27821;-61
2021/05/22 06:55:23;;;;;;;4.88;1.25;;;16.60;69.20;;;;;;5086773;28;27375;-62
2021/05/22 06:58:18;;;;;;;2.20;1.17;;;16.50;70.10;;;;;;5070966;28;27426;-61
2021/05/22 07:01:04;;;;;;;3.70;0.88;;;16.30;69.00;;;;;;5086607;28;27371;-62
2021/05/22 07:04:00;;;;;;;4.18;1.27;;;16.20;70.00;;;;;;5085488;28;27407;-63
2021/05/22 07:06:51;;;;;;;5.07;1.25;;;16.00;71.40;;;;;;5085738;28;27390;-63
2021/05/22 07:09:48;;;;;;;4.55;1.30;;;16.00;71.60;;;;;;5086534;28;27465;-63
2021/05/22 07:12:41;;;;;;;2.85;1.08;;;15.80;72.30;;;;;;5086153;28;27328;-64
2021/05/22 07:15:33;;;;;;;6.57;1.00;;;15.80;72.80;;;;;;5070692;28;27529;-63
2021/05/22 07:18:24;;;;;;;3.67;0.93;;;15.80;70.30;;;;;;5085997;28;27399;-64
2021/05/22 07:21:37;;;;;;;7.47;1.15;;;15.80;71.20;;;;;;5086383;28;27384;-64
2021/05/22 07:24:27;;;;;;;5.45;2.00;;;16.00;71.50;;;;;;5083875;28;27421;-62
2021/05/22 07:27:21;;;;;;;5.20;2.20;;;16.20;71.80;;;;;;5085897;28;27416;-62
2021/05/22 07:30:09;;;;;;;5.88;2.03;;;16.90;71.00;;;;;;5070989;28;27454;-61
2021/05/22 07:33:01;;;;;;;5.18;1.25;;;17.40;70.40;;;;;;5082455;28;27491;-61
2021/05/22 07:35:51;;;;;;;7.25;1.48;;;17.80;67.90;;;;;;5085800;28;27399;-62
2021/05/22 07:39:02;;;;;;;3.70;1.23;;;18.20;67.20;;;;;;5085993;28;27424;-62
2021/05/22 07:41:52;;;;;;;5.20;1.30;;;18.80;66.20;;;;;;5085086;28;27440;-62
2021/05/22 07:44:43;;;;;;;5.57;1.50;;;19.30;65.00;;;;;;5085523;28;27415;-62
2021/05/22 07:47:34;;;;;;;7.30;1.52;;;19.80;63.40;;;;;;5085619;28;27454;-63
2021/05/22 07:50:24;;;;;;;5.45;1.50;;;20.40;62.00;;;;;;5082261;28;27844;-63
2021/05/22 07:53:39;;;;;;;4.88;1.40;;;20.70;60.00;;;;;;5085514;28;27518;-63
2021/05/22 07:56:29;;;;;;;7.72;1.48;;;21.10;58.30;;;;;;5085823;28;27461;-63
2021/05/22 07:59:32;;;;;;;5.07;1.00;;;21.10;57.70;;;;;;5085788;28;27316;-63
2021/05/22 08:02:23;;;;;;;4.78;1.25;;;20.90;58.70;;;;;;5082392;28;27363;-63
2021/05/22 08:05:40;;;;;;;3.95;0.73;;;21.10;58.40;;;;;;5085361;28;27478;-63
2021/05/22 08:08:38;;;;;;;3.72;1.15;;;21.60;58.10;;;;;;5085017;28;27375;-63
2021/05/22 08:11:29;;;;;;;1.80;0.65;;;22.10;55.90;;;;;;5085560;28;27328;-63
2021/05/22 08:14:26;;;;;;;8.10;1.92;;;22.40;55.30;;;;;;5085444;28;27457;-64
2021/05/22 08:17:29;;;;;;;4.32;1.25;;;22.20;54.40;;;;;;5081907;28;27397;-63
2021/05/22 08:20:19;;;;;;;3.35;1.10;;;22.40;54.60;;;;;;5085445;28;26923;-63
2021/05/22 08:23:24;;;;;;;3.47;1.27;;;22.70;54.30;;;;;;5084691;28;27401;-63
2021/05/22 08:26:37;;;;;;;6.13;1.40;;;22.90;54.70;;;;;;5082000;28;28002;-64
2021/05/22 08:29:28;;;;;;;3.10;1.27;;;23.10;53.40;;;;;;5083894;28;27419;-64
2021/05/22 08:33:01;;;;;;;3.50;0.90;;;23.50;52.20;;;;;;5085277;28;27402;-63
2021/05/22 08:35:54;;;;;;;5.60;1.15;;;24.00;51.40;;;;;;5084941;28;27395;-64
2021/05/22 08:38:45;;;;;;;3.10;0.80;;;24.40;51.00;;;;;;5069682;28;27411;-64
2021/05/22 08:41:37;;;;;;;4.28;1.15;;;24.60;50.60;;;;;;5084798;28;27541;-64
2021/05/22 08:44:29;;;;;;;4.43;1.10;;;24.70;50.80;;;;;;5066762;28;27660;-64
2021/05/22 08:47:19;;;;;;;2.55;1.00;;;24.70;49.00;;;;;;5085023;28;27365;-64
2021/05/22 08:50:17;;;;;;;6.43;1.05;;;24.90;49.40;;;;;;5084872;28;27465;-64
2021/05/22 08:53:03;;;;;;;2.00;0.80;;;24.90;49.00;;;;;;5084878;28;27566;-64
2021/05/22 08:55:56;;;;;;;3.42;0.90;;;25.00;49.40;;;;;;5083555;28;27310;-64
2021/05/22 08:58:48;;;;;;;1.58;0.90;;;25.30;49.00;;;;;;5069378;28;27398;-65
2021/05/22 09:01:38;;;;;;;3.28;1.10;;;25.60;49.50;;;;;;5084412;28;27481;-64
2021/05/22 09:04:35;;;;;;;3.05;1.17;;;25.90;48.70;;;;;;5084652;28;27377;-64
2021/05/22 09:07:26;;;;;;;3.60;0.90;;;26.00;47.70;;;;;;5082471;28;27610;-64
2021/05/22 09:10:27;;;;;;;3.80;1.10;;;25.80;47.40;;;;;;5083885;28;27431;-64
2021/05/22 09:14:03;;;;;;;8.07;1.10;;;25.60;48.50;;;;;;5083159;28;27416;-65
2021/05/22 09:17:05;;;;;;;5.22;1.20;;;25.80;45.70;;;;;;5084220;28;27415;-65
2021/05/22 09:20:04;;;;;;;4.53;1.20;;;25.90;45.80;;;;;;5083776;28;27375;-65
2021/05/22 09:23:22;;;;;;;6.03;1.10;;;26.10;48.30;;;;;;5083089;28;27462;-65
2021/05/22 09:26:14;;;;;;;5.25;1.92;;;26.30;46.80;;;;;;5084271;28;27419;-65
2021/05/22 09:29:06;;;;;;;6.03;1.13;;;26.50;47.00;;;;;;5084370;28;27477;-65
2021/05/22 09:32:04;;;;;;;3.53;1.00;;;26.60;47.90;;;;;;5084169;28;27402;-65
2021/05/22 09:35:01;;;;;;;4.82;1.25;;;26.60;46.10;;;;;;5084296;28;27457;-65
2021/05/22 09:38:01;;;;;;;6.88;1.42;;;26.60;46.30;;;;;;5083980;28;27856;-66
2021/05/22 09:40:51;;;;;;;3.60;1.02;;;26.60;47.70;;;;;;5085856;28;27380;-65
2021/05/22 09:43:42;;;;;;;5.18;1.10;;;26.70;48.30;;;;;;5087928;28;27434;-65
2021/05/22 09:46:33;;;;;;;4.50;1.00;;;26.30;47.70;;;;;;5087817;28;27612;-65
2021/05/22 09:49:43;;;;;;;3.75;1.02;;;26.10;47.40;;;;;;5084552;28;27297;-65
2021/05/22 09:52:34;;;;;;;5.82;1.30;;;25.90;47.90;;;;;;5087453;28;27475;-65
2021/05/22 09:55:52;;;;;;;1.90;0.80;;;26.10;48.50;;;;;;5087768;28;27426;-65
2021/05/22 09:59:04;;;;;;;4.03;1.02;;;26.20;48.60;;;;;;5087415;28;27365;-65
2021/05/22 10:01:57;;;;;;;5.80;0.90;;;26.20;48.70;;;;;;5087297;28;27371;-65
2021/05/22 10:05:35;;;;;;;3.05;0.90;;;25.90;47.10;;;;;;5087179;28;27433;-63
2021/05/22 10:08:38;;;;;;;6.88;1.25;;;25.80;39.20;;;;;;5087255;28;27339;-63
2021/05/22 10:12:09;;;;;;;7.60;1.35;;;25.60;43.70;;;;;;5083823;28;27426;-65
2021/05/22 10:15:22;;;;;;;6.03;1.15;;;25.60;36.00;;;;;;5087457;28;27412;-66
2021/05/22 10:18:13;;;;;;;3.45;1.02;;;25.40;34.30;;;;;;5086607;28;27400;-64
2021/05/22 10:21:41;;;;;;;4.85;1.10;;;25.30;34.20;;;;;;5083001;28;27317;-62
2021/05/22 10:24:34;;;;;;;5.68;0.80;;;25.30;35.40;;;;;;5086068;28;27636;-63
2021/05/22 10:27:46;;;;;;;2.80;1.10;;;25.10;34.80;;;;;;5071269;28;27434;-61
2021/05/22 10:30:44;;;;;;;4.22;1.58;;;24.90;34.70;;;;;;5083868;28;27419;-60
2021/05/22 10:33:55;;;;;;;3.88;1.55;;;24.80;35.70;;;;;;5083914;28;27357;-61
2021/05/22 10:36:54;;;;;;;6.15;1.92;;;24.70;34.70;;;;;;5086808;28;27415;-60
2021/05/22 10:40:03;;;;;;;3.85;1.40;;;24.60;34.70;;;;;;5086729;28;27377;-60
2021/05/22 10:42:56;;;;;;;9.70;0.98;;;24.60;34.50;;;;;;5086557;28;27489;-60
2021/05/22 10:45:50;;;;;;;12.52;1.30;;;24.60;34.40;;;;;;5085814;28;27391;-61
2021/05/22 10:48:46;;;;;;;5.10;0.95;;;24.60;33.10;;;;;;5086064;27;27388;-60
2021/05/22 10:51:35;;;;;;;6.22;1.15;;;24.60;33.30;;;;;;5086032;28;27402;-60
2021/05/22 10:54:26;;;;;;;9.90;1.20;;;24.60;34.70;;;;;;5086445;28;27466;-60
2021/05/22 10:57:17;;;;;;;10.18;1.08;;;24.50;35.50;;;;;;5082815;28;27310;-60
2021/05/22 11:00:18;;;;;;;6.90;1.33;;;24.50;32.90;;;;;;5085583;28;27513;-60
2021/05/22 11:03:13;;;;;;;6.30;1.05;;;24.40;34.10;;;;;;5083017;28;27433;-60
2021/05/22 11:06:16;;;;;;;4.63;1.10;;;24.40;35.00;;;;;;5086222;28;27504;-59
2021/05/22 11:09:32;;;;;;;5.78;1.10;;;24.20;33.50;;;;;;5085735;28;26951;-60
2021/05/22 11:12:30;;;;;;;19.88;1.63;;;24.00;34.40;;;;;;5083709;28;27387;-61
2021/05/22 11:15:57;;;;;;;8.77;1.17;;;23.90;35.40;;;;;;5085864;28;27682;-60
2021/05/22 11:18:46;;;;;;;45.92;4.22;;;23.90;35.50;;;;;;5086014;28;27393;-60
2021/05/22 11:21:45;;;;;;;7.47;1.20;;;23.90;34.90;;;;;;5082858;28;27403;-61
2021/05/22 11:24:47;;;;;;;7.88;0.85;;;23.90;33.30;;;;;;5084285;28;27670;-62
2021/05/22 11:28:02;;;;;;;6.22;0.85;;;23.80;36.10;;;;;;5082597;28;27414;-62
2021/05/22 11:30:55;;;;;;;4.25;1.40;;;23.90;34.30;;;;;;5085660;28;27405;-62
2021/05/22 11:34:18;;;;;;;5.22;1.23;;;23.90;34.90;;;;;;5085954;28;27398;-62
2021/05/22 11:37:58;;;;;;;5.32;1.25;;;23.90;34.10;;;;;;5085399;28;27324;-62
2021/05/22 11:40:47;;;;;;;10.07;1.10;;;23.90;34.20;;;;;;5085065;28;27462;-62
2021/05/22 11:44:05;;;;;;;18.02;2.03;;;23.90;38.60;;;;;;5085723;28;27458;-63
2021/05/22 11:47:32;;;;;;;3.97;0.77;;;23.90;38.00;;;;;;5084226;28;27435;-62
2021/05/22 11:51:06;;;;;;;5.55;1.10;;;23.70;35.00;;;;;;5085031;28;27432;-62
2021/05/22 11:54:20;;;;;;;5.18;0.93;;;23.40;37.40;;;;;;5084091;28;27436;-64
2021/05/22 11:57:17;;;;;;;5.45;0.93;;;23.30;38.60;;;;;;5084651;28;27396;-63
2021/05/22 12:00:28;;;;;;;1.42;0.65;;;23.20;35.10;;;;;;5085428;28;27404;-64
2021/05/22 12:04:02;;;;;;;4.82;0.90;;;23.20;38.60;;;;;;5084753;28;27407;-64
2021/05/22 12:07:07;;;;;;;1.90;0.80;;;23.20;42.20;;;;;;5084838;28;27948;-65
2021/05/22 12:10:34;;;;;;;3.40;0.60;;;23.40;43.40;;;;;;5085290;28;27497;-65
2021/05/22 12:14:11;;;;;;;6.15;0.70;;;23.60;43.20;;;;;;5085064;28;27405;-64
2021/05/22 12:17:48;;;;;;;2.72;0.70;;;23.80;43.00;;;;;;5084631;28;27318;-64
2021/05/22 12:21:28;;;;;;;3.95;1.05;;;23.90;43.50;;;;;;5085103;28;27338;-64
2021/05/22 12:25:21;;;;;;;2.85;0.60;;;24.10;42.20;;;;;;5083222;28;27715;-64
2021/05/22 12:28:26;;;;;;;3.28;1.00;;;24.20;40.00;;;;;;5084828;28;27383;-64
2021/05/22 12:31:38;;;;;;;4.32;0.80;;;24.30;39.60;;;;;;5085065;28;27441;-64
2021/05/22 12:34:37;;;;;;;2.97;0.68;;;24.30;38.50;;;;;;5084709;28;27416;-63
2021/05/22 12:37:29;;;;;;;3.83;0.98;;;24.10;37.70;;;;;;5083405;28;27368;-64
2021/05/22 12:40:27;;;;;;;6.82;1.13;;;23.80;39.10;;;;;;5085377;28;27468;-63
2021/05/22 12:43:27;;;;;;;6.43;0.90;;;23.50;39.70;;;;;;5084931;28;26943;-64
2021/05/22 12:46:37;;;;;;;4.18;0.98;;;23.30;40.30;;;;;;5081462;28;27461;-64
2021/05/22 12:49:35;;;;;;;4.88;0.80;;;23.30;40.70;;;;;;5084872;28;27510;-64
2021/05/22 12:52:55;;;;;;;2.95;0.70;;;23.30;41.40;;;;;;5081358;28;27499;-64
2021/05/22 12:55:52;;;;;;;4.90;0.82;;;23.40;40.60;;;;;;5080587;28;27486;-64
2021/05/22 12:59:12;;;;;;;1.17;0.55;;;23.50;41.40;;;;;;5084790;28;27437;-63
2021/05/22 13:02:22;;;;;;;3.65;1.02;;;23.50;40.30;;;;;;5084524;28;27585;-63
2021/05/22 13:05:11;;;;;;;2.67;0.93;;;23.50;40.40;;;;;;5084730;28;27462;-64
2021/05/22 13:08:47;;;;;;;6.80;0.93;;;23.50;41.20;;;;;;5084349;28;27426;-64
2021/05/22 13:11:55;;;;;;;5.43;1.20;;;23.40;40.40;;;;;;5083827;28;27337;-64
2021/05/22 13:14:54;;;;;;;18.58;2.72;;;23.20;39.80;;;;;;5084094;28;27466;-63
2021/05/22 13:18:14;;;;;;;20.65;2.20;;;23.10;42.90;;;;;;5084277;28;27389;-63
2021/05/22 13:21:29;;;;;;;5.00;1.15;;;23.20;48.00;;;;;;5083650;28;27404;-62
2021/05/22 13:24:57;;;;;;;6.75;1.13;;;23.30;51.50;;;;;;5082693;28;27486;-63
2021/05/22 13:28:22;;;;;;;6.95;1.70;;;23.30;51.90;;;;;;5083663;28;27409;-62
2021/05/22 13:31:42;;;;;;;4.07;1.30;;;23.50;54.50;;;;;;5082966;28;27407;-62
2021/05/22 13:34:42;;;;;;;6.60;1.20;;;23.70;52.90;;;;;;5084092;28;27321;-63
2021/05/22 13:37:35;;;;;;;4.28;1.05;;;23.70;52.60;;;;;;5084188;28;27453;-62
2021/05/22 13:40:41;;;;;;;5.95;0.80;;;23.70;49.90;;;;;;5068679;28;27494;-62
2021/05/22 13:43:33;;;;;;;3.17;0.82;;;23.60;42.00;;;;;;5083791;28;27517;-64
2021/05/22 13:46:24;;;;;;;2.72;0.70;;;23.50;40.80;;;;;;5084178;28;27423;-63
2021/05/22 13:49:29;;;;;;;6.32;1.02;;;23.30;38.60;;;;;;5084020;28;27429;-68
2021/05/22 13:52:26;;;;;;;4.80;1.45;;;23.20;40.00;;;;;;5083764;28;27613;-67
2021/05/22 13:55:51;;;;;;;6.57;1.45;;;23.20;39.70;;;;;;5083868;28;27376;-65
2021/05/22 13:59:02;;;;;;;3.33;0.98;;;23.20;38.80;;;;;;5082946;28;27382;-64
2021/05/22 14:02:10;;;;;;;3.88;1.25;;;23.20;42.90;;;;;;5083924;28;27477;-63
2021/05/22 14:05:00;;;;;;;2.60;0.95;;;23.20;47.40;;;;;;5082349;28;27439;-64
2021/05/22 14:07:51;;;;;;;4.32;1.38;;;23.20;49.60;;;;;;5083664;28;27482;-64
2021/05/22 14:10:43;;;;;;;3.22;1.00;;;23.20;52.40;;;;;;5083869;28;27324;-61
2021/05/22 14:13:41;;;;;;;4.80;1.55;;;23.30;52.80;;;;;;5067899;28;27434;-64
2021/05/22 14:16:33;;;;;;;2.45;1.10;;;23.40;53.40;;;;;;5083880;28;27363;-63
2021/05/22 14:19:26;;;;;;;4.00;1.48;;;23.40;52.80;;;;;;5083890;28;27412;-63
2021/05/22 14:22:46;;;;;;;3.00;1.23;;;23.40;51.50;;;;;;5080213;28;27382;-63
2021/05/22 14:25:46;;;;;;;3.05;1.10;;;23.20;48.60;;;;;;5054112;28;28388;-62
2021/05/22 14:28:31;;;;;;;6.72;1.17;;;23.10;48.60;;;;;;5085974;28;27489;-61
2021/05/22 14:31:21;;;;;;;8.23;2.28;;;22.90;50.90;;;;;;5086959;28;27463;-63
2021/05/22 14:34:12;;;;;;;5.97;1.90;;;22.80;51.40;;;;;;5082826;28;27313;-63
2021/05/22 14:37:03;;;;;;;4.18;1.48;;;22.80;51.70;;;;;;5086988;28;27454;-63
2021/05/22 14:39:49;;;;;;;10.75;1.48;;;22.80;52.30;;;;;;5086722;28;27408;-63
2021/05/22 14:42:40;;;;;;;6.78;1.85;;;22.90;51.80;;;;;;5086103;28;27454;-63
2021/05/22 14:45:32;;;;;;;3.53;1.35;;;23.10;51.40;;;;;;5086815;28;27385;-63
2021/05/22 14:48:30;;;;;;;3.70;1.13;;;23.20;53.90;;;;;;5083282;28;27440;-63
2021/05/22 14:51:27;;;;;;;5.72;1.50;;;23.30;52.30;;;;;;5086444;28;27328;-63
2021/05/22 14:54:20;;;;;;;2.92;1.10;;;23.40;52.80;;;;;;5086624;28;27349;-63
2021/05/22 14:57:14;;;;;;;2.35;0.88;;;23.40;52.40;;;;;;5071392;28;27440;-63
2021/05/22 15:00:05;;;;;;;4.25;0.90;;;23.40;50.90;;;;;;5086624;28;27410;-63
2021/05/22 15:03:32;;;;;;;3.55;0.82;;;23.40;49.70;;;;;;5111546;27;27484;-63
2021/05/22 15:06:49;;;;;;;3.40;0.70;;;23.40;41.70;;;;;;5085854;28;27442;-64
2021/05/22 15:09:53;;;;;;;3.10;0.90;;;23.30;39.40;;;;;;5085928;28;27316;-64
2021/05/22 15:13:01;;;;;;;2.70;0.82;;;23.20;41.10;;;;;;5084651;28;27485;-63
2021/05/22 15:16:27;;;;;;;1.15;0.65;;;23.10;44.50;;;;;;5085039;28;27419;-63
2021/05/22 15:19:44;;;;;;;2.70;0.93;;;23.10;47.40;;;;;;5086426;28;27336;-63
2021/05/22 15:22:57;;;;;;;1.92;1.00;;;23.20;47.70;;;;;;5083678;28;27625;-64
2021/05/22 15:26:05;;;;;;;7.18;1.40;;;23.20;47.60;;;;;;5085597;28;27462;-64
2021/05/22 15:29:11;;;;;;;4.38;0.88;;;23.20;49.70;;;;;;5085810;28;27521;-63
2021/05/22 15:32:24;;;;;;;4.15;0.88;;;23.20;49.70;;;;;;5114069;27;27517;-64
2021/05/22 15:35:10;;;;;;;5.00;1.13;;;23.20;48.80;;;;;;5085644;28;27449;-63
2021/05/22 15:38:17;;;;;;;2.17;0.80;;;23.20;44.00;;;;;;5084769;28;27437;-63
2021/05/22 15:41:45;;;;;;;3.58;1.05;;;23.20;46.90;;;;;;5086002;28;27450;-63
2021/05/22 15:45:55;;;;;;;2.65;0.60;;;23.30;49.20;;;;;;5082560;28;27386;-63
2021/05/22 15:54:26;;;;;;;8.50;1.10;;;23.30;49.50;;;;;;5090912;28;27973;-64
2021/05/22 16:00:00;;;;;;;4.55;1.20;;;23.40;50.80;;;;;;5088073;28;27328;-64